Time;durP1;ratioP1;P1;durP2;ratioP2;P2;SDS_P1;SDS_P2;PMS_P1;PMS_P2;Temp;Humidity;BMP_temperature;BMP_pressure;BME280_temperature;BME280_humidity;BME280_pressure;Samples;Min_cycle;Max_cycle;Signal;HPM_P1;HPM_P2
2023/03/15 00:01:07;;;;;;;0.00;0.00;;;;;;;12.35;57.69;98683.22;5324544;26;33899;-84
2023/03/15 00:03:38;;;;;;;0.00;0.00;;;;;;;12.77;55.44;98673.22;5287294;26;32345;-82
2023/03/15 00:06:07;;;;;;;0.00;0.00;;;;;;;12.91;55.25;98685.50;5324494;26;34037;-83
2023/03/15 00:08:36;;;;;;;0.08;0.08;;;;;;;11.97;58.10;98707.00;5323912;26;34061;-83
2023/03/15 00:11:05;;;;;;;0.00;0.00;;;;;;;12.52;55.83;98698.78;5286938;26;33448;-85
2023/03/15 00:13:33;;;;;;;0.00;0.00;;;;;;;12.47;55.64;98700.03;5305395;26;33579;-83
2023/03/15 00:16:02;;;;;;;1.05;0.13;;;;;;;11.77;57.94;98708.25;5324101;26;33818;-82
2023/03/15 00:18:31;;;;;;;0.00;0.00;;;;;;;12.03;57.60;98710.06;5324166;26;34164;-85
2023/03/15 00:21:04;;;;;;;0.00;0.00;;;;;;;11.96;57.50;98718.50;5324149;26;34546;-85
2023/03/15 00:23:32;;;;;;;0.17;0.17;;;;;;;12.18;56.50;98704.69;5324629;26;34176;-83
2023/03/15 00:26:00;;;;;;;0.65;0.50;;;;;;;12.44;55.49;98721.47;5323389;26;32861;-84
2023/03/15 00:28:28;;;;;;;0.00;0.00;;;;;;;12.39;55.80;98724.41;5324063;26;35376;-83
2023/03/15 00:31:08;;;;;;;0.00;0.00;;;;;;;12.49;54.75;98727.28;5305496;26;33264;-83
2023/03/15 00:33:36;;;;;;;0.00;0.00;;;;;;;12.48;54.70;98710.53;5305212;26;32573;-84
2023/03/15 00:36:06;;;;;;;0.00;0.00;;;;;;;12.28;55.12;98713.69;5304582;26;34421;-85
2023/03/15 00:38:36;;;;;;;0.00;0.00;;;;;;;11.99;56.20;98713.00;5323486;26;32990;-85
2023/03/15 00:41:10;;;;;;;0.00;0.00;;;;;;;11.79;56.46;98714.31;5323460;26;33745;-85
2023/03/15 00:43:38;;;;;;;0.00;0.00;;;;;;;11.76;56.69;98711.84;5286873;26;32080;-85
2023/03/15 00:46:07;;;;;;;0.00;0.00;;;;;;;12.36;54.13;98692.84;5305397;26;32931;-85
2023/03/15 00:48:38;;;;;;;0.10;0.10;;;;;;;12.20;54.30;98694.84;5305544;26;32878;-85
2023/03/15 00:51:12;;;;;;;0.00;0.00;;;;;;;11.67;56.08;98691.31;5323920;26;34039;-85
2023/03/15 00:53:42;;;;;;;1.48;0.90;;;;;;;11.53;56.77;98685.13;5305222;26;32551;-85
2023/03/15 00:56:15;;;;;;;0.00;0.00;;;;;;;11.98;54.42;98680.41;5323626;26;33785;-85
2023/03/15 00:58:44;;;;;;;0.20;0.15;;;;;;;11.83;55.17;98677.97;5323555;26;34440;-84
2023/03/15 01:01:15;;;;;;;0.00;0.00;;;;;;;11.73;54.99;98680.34;5323477;26;34640;-84
2023/03/15 01:03:43;;;;;;;0.00;0.00;;;;;;;11.63;55.60;98679.22;5324061;26;33523;-84
2023/03/15 01:06:13;;;;;;;0.00;0.00;;;;;;;12.14;53.26;98682.03;5305288;26;33684;-84
2023/03/15 01:08:41;;;;;;;2.53;0.20;;;;;;;11.95;53.46;98690.34;5324148;26;33928;-84
2023/03/15 01:11:11;;;;;;;0.17;0.00;;;;;;;11.95;53.43;98685.91;5304804;26;32762;-84
2023/03/15 01:13:39;;;;;;;0.00;0.00;;;;;;;11.86;53.30;98697.09;5305152;26;32775;-84
2023/03/15 01:16:09;;;;;;;0.00;0.00;;;;;;;11.88;52.88;98695.22;5323833;26;34677;-83
2023/03/15 01:18:38;;;;;;;0.00;0.00;;;;;;;11.71;53.19;98692.81;5286945;26;33117;-84
2023/03/15 01:21:11;;;;;;;0.00;0.00;;;;;;;11.72;52.61;98695.34;5323776;26;32723;-83
2023/03/15 01:23:40;;;;;;;0.00;0.00;;;;;;;11.64;53.21;98692.38;5305210;26;32306;-83
2023/03/15 01:26:11;;;;;;;0.00;0.00;;;;;;;11.56;53.10;98693.81;5323711;26;34551;-84
2023/03/15 01:28:39;;;;;;;0.00;0.00;;;;;;;11.71;53.03;98700.72;5323327;26;34689;-84
2023/03/15 01:31:18;;;;;;;0.00;0.00;;;;;;;12.09;51.36;98695.56;5323570;26;33092;-84
2023/03/15 01:33:46;;;;;;;0.10;0.10;;;;;;;11.79;51.74;98687.84;5323318;26;33544;-85
2023/03/15 01:36:14;;;;;;;0.00;0.00;;;;;;;11.63;52.34;98684.50;5321766;26;33509;-84
2023/03/15 01:38:42;;;;;;;0.00;0.00;;;;;;;11.40;52.53;98678.97;5302147;26;33163;-84
2023/03/15 01:41:11;;;;;;;0.20;0.20;;;;;;;11.60;52.11;98690.03;5305003;26;33099;-84
2023/03/15 01:43:45;;;;;;;0.20;0.13;;;;;;;11.39;52.40;98687.81;5323660;26;34863;-85
2023/03/15 01:46:14;;;;;;;0.00;0.00;;;;;;;11.47;52.08;98697.91;5288009;26;32964;-85
2023/03/15 01:48:50;;;;;;;0.10;0.10;;;;;;;11.71;51.96;98700.72;5323276;26;33546;-84
2023/03/15 01:51:22;;;;;;;0.10;0.10;;;;;;;11.72;51.38;98695.34;5323494;26;34812;-85
2023/03/15 01:53:55;;;;;;;0.00;0.00;;;;;;;11.42;52.98;98690.25;5343202;26;34356;-85
2023/03/15 01:56:23;;;;;;;0.05;0.05;;;;;;;11.53;52.04;98700.97;5323252;26;33790;-85
2023/03/15 01:58:52;;;;;;;0.00;0.00;;;;;;;11.58;51.93;98705.13;5323674;26;34392;-85
2023/03/15 02:01:20;;;;;;;0.00;0.00;;;;;;;11.71;51.17;98703.38;5305018;26;33684;-84
2023/03/15 02:03:54;;;;;;;0.00;0.00;;;;;;;11.67;51.33;98702.72;5305286;26;32229;-85
2023/03/15 02:06:24;;;;;;;0.13;0.13;;;;;;;11.65;51.96;98704.63;5305885;26;32612;-85
2023/03/15 02:08:58;;;;;;;0.20;0.20;;;;;;;11.86;51.12;98699.75;5324036;26;33801;-85
2023/03/15 02:11:27;;;;;;;0.08;0.08;;;;;;;11.41;52.19;98696.50;5305087;26;32961;-85
2023/03/15 02:13:56;;;;;;;1.25;0.10;;;;;;;11.87;51.25;98708.53;5305872;26;32072;-84
2023/03/15 02:16:24;;;;;;;0.00;0.00;;;;;;;11.84;51.24;98701.66;5305102;26;33868;-84
2023/03/15 02:18:53;;;;;;;0.00;0.00;;;;;;;11.51;51.79;98697.59;5323792;26;33208;-84
2023/03/15 02:21:53;;;;;;;0.05;0.05;;;;;;;11.79;50.92;98716.94;5323876;26;33627;-84
2023/03/15 02:24:36;;;;;;;0.00;0.00;;;;;;;11.54;51.94;98709.78;5313328;26;34857;-84
2023/03/15 02:27:06;;;;;;;0.20;0.20;;;;;;;11.63;51.01;98706.53;5305469;26;34619;-83
2023/03/15 02:29:34;;;;;;;0.00;0.00;;;;;;;11.54;51.38;98702.69;5305006;26;33146;-84
2023/03/15 02:32:05;;;;;;;0.00;0.00;;;;;;;11.32;52.39;98705.03;5322879;26;32769;-84
2023/03/15 02:34:34;;;;;;;0.13;0.13;;;;;;;11.54;51.64;98702.69;5305684;26;31920;-84
2023/03/15 02:37:02;;;;;;;0.00;0.00;;;;;;;11.42;52.26;98707.91;5304557;26;33536;-84
2023/03/15 02:39:30;;;;;;;0.00;0.00;;;;;;;11.02;53.78;98705.19;5323084;26;34665;-84
2023/03/15 02:41:58;;;;;;;1.90;0.95;;;;;;;11.29;52.72;98713.13;5323248;26;35555;-84
2023/03/15 02:44:30;;;;;;;0.00;0.00;;;;;;;11.22;52.45;98706.56;5323494;26;33333;-84
2023/03/15 02:47:05;;;;;;;0.00;0.00;;;;;;;11.25;53.00;98706.34;5305244;26;34464;-85
2023/03/15 02:49:37;;;;;;;0.00;0.00;;;;;;;11.49;51.93;98714.53;5304994;26;34682;-84
2023/03/15 02:52:09;;;;;;;0.00;0.00;;;;;;;11.32;52.51;98717.38;5305412;26;34519;-85
2023/03/15 02:54:44;;;;;;;0.00;0.00;;;;;;;11.41;52.28;98712.37;5324259;26;34286;-85
2023/03/15 02:57:13;;;;;;;0.13;0.13;;;;;;;11.06;53.63;98711.94;5323340;26;33971;-85
2023/03/15 02:59:42;;;;;;;0.88;0.82;;;;;;;10.95;54.25;98715.28;5323053;26;33573;-85
2023/03/15 03:02:12;;;;;;;0.00;0.00;;;;;;;11.18;53.80;98712.97;5304980;26;33230;-85
2023/03/15 03:04:40;;;;;;;0.15;0.10;;;;;;;10.92;55.10;98715.47;5305935;26;34062;-85
2023/03/15 03:07:09;;;;;;;0.00;0.00;;;;;;;11.38;53.66;98723.13;5304756;26;32450;-86
2023/03/15 03:09:39;;;;;;;1.33;1.05;;;;;;;10.88;55.38;98707.84;5323303;26;33671;-86
2023/03/15 03:12:08;;;;;;;0.20;0.20;;;;;;;10.97;55.35;98702.84;5305208;26;33722;-86
2023/03/15 03:14:36;;;;;;;0.00;0.00;;;;;;;10.87;55.35;98712.28;5323214;26;33023;-85
2023/03/15 03:17:07;;;;;;;0.10;0.10;;;;;;;11.08;54.76;98703.94;5306083;26;34181;-86
2023/03/15 03:19:35;;;;;;;0.00;0.00;;;;;;;10.70;56.09;98709.81;5323143;26;34746;-86
2023/03/15 03:22:03;;;;;;;0.00;0.00;;;;;;;10.85;55.43;98706.22;5304543;26;33029;-86
2023/03/15 03:24:31;;;;;;;0.08;0.08;;;;;;;10.63;55.98;98703.22;5304282;26;34103;-86
2023/03/15 03:27:03;;;;;;;0.00;0.00;;;;;;;10.56;56.63;98704.53;5305115;26;35301;-86
2023/03/15 03:29:31;;;;;;;0.47;0.10;;;;;;;10.66;55.93;98711.78;5286545;26;32677;-85
2023/03/15 03:32:00;;;;;;;0.28;0.10;;;;;;;10.60;56.91;98700.78;5304659;26;32859;-85
2023/03/15 03:34:28;;;;;;;0.13;0.13;;;;;;;10.78;55.61;98702.28;5304615;26;34379;-85
2023/03/15 03:36:58;;;;;;;0.00;0.00;;;;;;;10.94;55.14;98689.81;5324187;26;34915;-85
2023/03/15 03:39:26;;;;;;;0.28;0.17;;;;;;;10.88;55.33;98692.84;5287496;26;33082;-86
2023/03/15 03:41:54;;;;;;;0.00;0.00;;;;;;;10.98;53.93;98704.53;5324036;26;33104;-85
2023/03/15 03:44:22;;;;;;;0.20;0.10;;;;;;;11.14;52.96;98687.69;5343776;26;33451;-86
2023/03/15 03:46:51;;;;;;;0.00;0.00;;;;;;;10.94;53.09;98697.72;5305653;26;34617;-86
2023/03/15 03:49:18;;;;;;;0.00;0.00;;;;;;;11.16;52.13;98689.31;5324479;26;33930;-85
2023/03/15 03:51:46;;;;;;;0.03;0.03;;;;;;;11.13;52.25;98684.22;5306104;26;33639;-86
2023/03/15 03:54:14;;;;;;;0.00;0.00;;;;;;;10.89;52.43;98685.75;5324248;26;32376;-86
2023/03/15 03:56:44;;;;;;;0.20;0.10;;;;;;;10.80;53.17;98684.53;5288167;26;32720;-85
2023/03/15 03:59:12;;;;;;;0.37;0.20;;;;;;;11.06;52.00;98688.16;5324045;26;33214;-85
2023/03/15 04:01:41;;;;;;;0.00;0.00;;;;;;;11.01;52.29;98693.78;5324485;26;33771;-85
2023/03/15 04:04:13;;;;;;;0.00;0.00;;;;;;;10.91;52.59;98703.19;5288139;26;32806;-85
2023/03/15 04:06:44;;;;;;;0.00;0.00;;;;;;;11.33;51.48;98696.13;5325007;26;34112;-85
2023/03/15 04:09:14;;;;;;;0.10;0.10;;;;;;;11.21;51.87;98708.34;5306461;26;35348;-85
2023/03/15 04:11:42;;;;;;;0.00;0.00;;;;;;;10.95;52.83;98717.06;5324551;26;33659;-85
2023/03/15 04:14:12;;;;;;;0.00;0.00;;;;;;;11.32;50.97;98726.16;5323435;26;34134;-85
2023/03/15 04:16:42;;;;;;;0.00;0.00;;;;;;;10.98;52.58;98741.50;5324499;26;34516;-85
2023/03/15 04:19:14;;;;;;;0.00;0.00;;;;;;;10.90;52.40;98738.47;5323221;26;33315;-85
2023/03/15 04:21:46;;;;;;;0.00;0.00;;;;;;;10.90;52.67;98754.31;5324486;26;33985;-85
2023/03/15 04:24:14;;;;;;;;;;;;;;;11.27;51.25;98757.31;5288281;26;33880;-86
2023/03/15 04:26:43;;;;;;;0.10;0.10;;;;;;;10.77;52.39;98761.28;5324274;26;34426;-84
2023/03/15 04:29:14;;;;;;;0.62;0.35;;;;;;;10.76;51.17;98767.53;5306187;26;34744;-83
2023/03/15 04:31:42;;;;;;;0.10;0.08;;;;;;;10.67;50.80;98763.66;5305460;26;32868;-83
2023/03/15 04:34:10;;;;;;;0.00;0.00;;;;;;;10.20;52.20;98771.72;5323674;26;34107;-84
2023/03/15 04:36:41;;;;;;;0.00;0.00;;;;;;;10.47;51.10;98785.97;5305678;26;34604;-84
2023/03/15 04:39:11;;;;;;;0.00;0.00;;;;;;;10.17;50.79;98779.84;5324645;26;34787;-83
2023/03/15 04:41:40;;;;;;;0.00;0.00;;;;;;;10.56;48.96;98794.28;5323736;26;34584;-84
2023/03/15 04:44:09;;;;;;;0.00;0.00;;;;;;;10.45;49.27;98795.78;5324216;26;33751;-84
2023/03/15 04:46:38;;;;;;;0.00;0.00;;;;;;;10.16;49.76;98793.94;5323069;26;32285;-84
2023/03/15 04:49:06;;;;;;;1.80;1.20;;;;;;;10.00;50.30;98799.25;5305210;26;33882;-83
2023/03/15 04:51:35;;;;;;;0.10;0.10;;;;;;;10.30;49.86;98806.34;5323781;26;33643;-83
2023/03/15 04:54:07;;;;;;;0.00;0.00;;;;;;;10.29;49.71;98817.88;5323910;26;32697;-85
2023/03/15 04:56:36;;;;;;;0.13;0.10;;;;;;;10.30;49.11;98828.31;5323861;26;33614;-84
2023/03/15 04:59:04;;;;;;;0.00;0.00;;;;;;;9.87;49.71;98824.63;5305392;26;33231;-84
2023/03/15 05:01:34;;;;;;;0.00;0.00;;;;;;;9.77;50.65;98828.72;5324158;26;33715;-84
2023/03/15 05:04:07;;;;;;;0.00;0.00;;;;;;;9.86;50.28;98828.19;5287209;26;32415;-84
2023/03/15 05:06:39;;;;;;;0.20;0.20;;;;;;;9.59;51.06;98830.56;5324942;26;33932;-84
2023/03/15 05:09:08;;;;;;;0.00;0.00;;;;;;;9.49;51.45;98838.12;5323929;26;34268;-85
2023/03/15 05:11:36;;;;;;;2.20;0.20;;;;;;;9.45;51.50;98845.38;5323859;26;34412;-83
2023/03/15 05:14:05;;;;;;;0.00;0.00;;;;;;;9.17;52.23;98832.00;5324108;26;34254;-84
2023/03/15 05:16:34;;;;;;;0.00;0.00;;;;;;;9.63;51.46;98824.19;5306000;26;33858;-84
2023/03/15 05:19:05;;;;;;;0.00;0.00;;;;;;;9.66;50.47;98821.41;5305981;26;34007;-84
2023/03/15 05:21:33;;;;;;;0.00;0.00;;;;;;;9.52;51.21;98834.50;5323674;26;33922;-83
2023/03/15 05:24:02;;;;;;;0.00;0.00;;;;;;;9.41;51.14;98841.19;5342163;26;33783;-84
2023/03/15 05:26:30;;;;;;;0.00;0.00;;;;;;;9.75;50.24;98826.16;5323340;26;33765;-85
2023/03/15 05:28:59;;;;;;;0.00;0.00;;;;;;;9.74;50.48;98824.47;5324130;26;33198;-83
2023/03/15 05:31:35;;;;;;;0.00;0.00;;;;;;;9.53;50.48;98820.37;5305733;26;34323;-83
2023/03/15 05:34:06;;;;;;;0.30;0.30;;;;;;;9.12;52.42;98826.13;5325197;26;32711;-83
2023/03/15 05:36:34;;;;;;;0.00;0.00;;;;;;;9.67;50.27;98823.94;5323342;26;34012;-84
2023/03/15 05:39:07;;;;;;;0.00;0.00;;;;;;;9.71;50.08;98828.13;5323980;26;35049;-83
2023/03/15 05:41:45;;;;;;;0.00;0.00;;;;;;;9.15;52.72;98836.47;5271537;26;34045;-84
2023/03/15 05:44:15;;;;;;;0.32;0.32;;;;;;;9.13;52.61;98826.03;5306518;26;34141;-84
2023/03/15 05:46:53;;;;;;;0.00;0.00;;;;;;;9.04;52.83;98829.16;5323801;26;33586;-84
2023/03/15 05:49:25;;;;;;;0.22;0.22;;;;;;;8.49;54.54;98831.12;5305532;26;33042;-84
2023/03/15 05:51:56;;;;;;;0.00;0.00;;;;;;;9.16;52.65;98827.63;5324003;26;34275;-83
2023/03/15 05:54:24;;;;;;;0.00;0.00;;;;;;;9.24;52.16;98818.38;5302658;26;32334;-83
2023/03/15 05:56:52;;;;;;;0.00;0.00;;;;;;;9.13;52.75;98835.72;5302547;26;33105;-83
2023/03/15 05:59:24;;;;;;;0.15;0.15;;;;;;;8.90;54.01;98840.41;5320935;26;34309;-84
2023/03/15 06:01:55;;;;;;;;;;;;;;;8.94;53.82;98839.31;5321479;26;34193;-84
2023/03/15 06:04:28;;;;;;;0.00;0.00;;;;;;;9.45;51.91;98837.47;5322018;26;33393;-83
2023/03/15 06:06:58;;;;;;;0.88;0.57;;;;;;;9.33;52.19;98832.84;5285001;26;33105;-84
2023/03/15 06:09:32;;;;;;;0.37;0.30;;;;;;;9.66;51.18;98831.94;5339135;26;33893;-84
2023/03/15 06:12:00;;;;;;;0.17;0.17;;;;;;;9.60;50.82;98829.66;5302381;26;33411;-83
2023/03/15 06:14:34;;;;;;;0.37;0.37;;;;;;;9.05;52.74;98835.25;5302922;26;31967;-83
2023/03/15 06:17:04;;;;;;;0.00;0.00;;;;;;;9.16;52.48;98831.12;5302718;26;35308;-83
2023/03/15 06:19:33;;;;;;;0.03;0.03;;;;;;;9.20;52.28;98839.72;5302714;26;33958;-83
2023/03/15 06:22:06;;;;;;;0.00;0.00;;;;;;;9.37;51.81;98831.75;5321024;26;34697;-83
2023/03/15 06:24:43;;;;;;;0.00;0.00;;;;;;;8.87;53.70;98840.53;5287271;26;31907;-82
2023/03/15 06:27:20;;;;;;;0.00;0.00;;;;;;;8.64;54.62;98848.78;5302280;26;34430;-83
2023/03/15 06:29:49;;;;;;;0.00;0.00;;;;;;;9.09;53.03;98842.91;5321192;26;33536;-84
2023/03/15 06:35:01;;;;;;;0.28;0.28;;;;;;;9.09;52.49;98842.06;5323267;26;32403;-84
2023/03/15 06:37:36;;;;;;;0.00;0.00;;;;;;;8.64;54.57;98861.94;5286922;26;32884;-85
2023/03/15 06:40:06;;;;;;;0.00;0.00;;;;;;;8.86;54.06;98852.00;5320964;26;34378;-84
2023/03/15 06:42:40;;;;;;;0.00;0.00;;;;;;;8.92;53.38;98856.09;5303541;26;33092;-84
2023/03/15 06:47:52;;;;;;;0.35;0.35;;;;;;;8.87;53.96;98851.06;5323401;26;33887;-85
2023/03/15 06:50:21;;;;;;;0.65;0.10;;;;;;;8.71;54.38;98844.91;5320934;26;33619;-85
2023/03/15 06:52:49;;;;;;;8.55;1.27;;;;;;;8.68;55.15;98858.22;5320648;26;35364;-85
2023/03/15 06:55:18;;;;;;;0.00;0.00;;;;;;;9.01;53.64;98870.56;5303177;26;33482;-83
2023/03/15 06:57:52;;;;;;;0.00;0.00;;;;;;;8.95;53.59;98862.06;5339158;26;33647;-83
2023/03/15 07:00:21;;;;;;;0.55;0.55;;;;;;;8.79;53.91;98876.12;5320965;26;35220;-83
2023/03/15 07:02:51;;;;;;;0.20;0.20;;;;;;;8.88;53.70;98881.75;5302839;26;32844;-83
2023/03/15 07:05:20;;;;;;;0.03;0.03;;;;;;;8.90;53.64;98877.25;5313114;26;33116;-83
2023/03/15 07:07:49;;;;;;;0.20;0.20;;;;;;;8.93;53.77;98886.78;5320785;26;33749;-83
2023/03/15 07:10:20;;;;;;;0.05;0.05;;;;;;;9.05;53.22;98882.66;5320328;26;33767;-84
2023/03/15 07:12:51;;;;;;;0.00;0.00;;;;;;;9.00;53.19;98895.22;5302271;26;33659;-84
2023/03/15 07:15:20;;;;;;;0.35;0.17;;;;;;;9.11;53.02;98893.72;5320941;26;34247;-83
2023/03/15 07:17:50;;;;;;;0.00;0.00;;;;;;;8.74;53.82;98897.41;5303536;26;33289;-84
2023/03/15 07:20:26;;;;;;;0.22;0.22;;;;;;;8.54;54.29;98890.50;5304275;26;33178;-83
2023/03/15 07:22:58;;;;;;;0.00;0.00;;;;;;;8.25;56.03;98896.31;5321926;26;34003;-83
2023/03/15 07:25:27;;;;;;;0.13;0.13;;;;;;;8.79;53.31;98905.91;5322243;26;33589;-86
2023/03/15 07:28:03;;;;;;;0.32;0.32;;;;;;;8.93;53.02;98902.59;5322340;26;34378;-84
2023/03/15 07:30:42;;;;;;;0.22;0.17;;;;;;;8.99;52.64;98915.44;5304016;26;34265;-83
2023/03/15 07:33:10;;;;;;;0.10;0.10;;;;;;;9.05;52.36;98922.16;5303194;26;33048;-83
2023/03/15 07:35:48;;;;;;;0.00;0.00;;;;;;;8.47;54.64;98915.41;5321108;26;33246;-84
2023/03/15 07:38:24;;;;;;;0.00;0.00;;;;;;;8.37;54.83;98917.66;5302891;26;33666;-84
2023/03/15 07:40:57;;;;;;;0.85;0.32;;;;;;;8.39;54.08;98931.56;5303620;26;32652;-84
2023/03/15 07:43:33;;;;;;;0.10;0.10;;;;;;;8.73;52.97;98927.25;5303700;26;33324;-83
2023/03/15 07:46:06;;;;;;;0.20;0.20;;;;;;;8.60;53.68;98936.72;5321773;26;32438;-84
2023/03/15 07:51:18;;;;;;;0.10;0.10;;;;;;;8.43;54.22;98927.00;5321129;26;34206;-83
2023/03/15 07:53:57;;;;;;;0.40;0.37;;;;;;;8.52;53.68;98930.97;5322918;26;34702;-82
2023/03/15 07:56:35;;;;;;;1.35;0.20;;;;;;;8.60;54.09;98934.09;5323211;26;32876;-83
2023/03/15 07:59:16;;;;;;;0.80;0.80;;;;;;;8.70;53.78;98932.69;5320861;26;33347;-82
2023/03/15 08:01:48;;;;;;;1.50;0.85;;;;;;;8.71;53.91;98931.75;5321901;26;33121;-83
2023/03/15 08:04:24;;;;;;;0.57;0.57;;;;;;;8.98;52.85;98932.16;5322838;26;33648;-81
2023/03/15 08:06:58;;;;;;;0.65;0.65;;;;;;;8.85;52.87;98931.91;5322338;26;33900;-80
2023/03/15 08:09:28;;;;;;;0.10;0.10;;;;;;;9.06;51.77;98947.56;5285005;26;34119;-80
2023/03/15 08:11:57;;;;;;;0.20;0.20;;;;;;;8.69;53.30;98933.63;5321459;26;33479;-81
2023/03/15 08:14:37;;;;;;;0.00;0.00;;;;;;;8.41;53.95;98935.00;5304586;26;32989;-81
2023/03/15 08:17:11;;;;;;;;;;;;;;;8.52;54.06;98936.25;5322344;26;33466;-81
2023/03/15 08:19:43;;;;;;;0.00;0.00;;;;;;;8.60;53.77;98944.63;5321880;26;34849;-80
2023/03/15 08:22:12;;;;;;;0.08;0.08;;;;;;;8.96;51.56;98942.75;5321287;26;33972;-80
2023/03/15 08:24:48;;;;;;;0.00;0.00;;;;;;;8.85;51.39;98942.44;5321338;26;33484;-81
2023/03/15 08:27:22;;;;;;;0.00;0.00;;;;;;;9.10;50.50;98939.41;5302806;26;32617;-80
2023/03/15 08:30:04;;;;;;;0.05;0.05;;;;;;;8.89;52.25;98949.28;5304923;26;35132;-81
2023/03/15 08:32:33;;;;;;;0.00;0.00;;;;;;;9.23;50.34;98955.44;5321221;26;33239;-80
2023/03/15 08:35:21;;;;;;;0.75;0.68;;;;;;;9.13;48.97;98959.50;5286882;26;33404;-83
2023/03/15 08:38:09;;;;;;;0.57;0.57;;;;;;;9.27;49.35;98959.63;5300564;26;32308;-82
2023/03/15 08:40:47;;;;;;;;;;;;;;;8.76;50.86;98949.97;5339247;26;35535;-81
2023/03/15 08:48:46;;;;;;;0.10;0.10;;;;;;;8.40;50.49;98963.97;5315025;26;33478;-82
2023/03/15 08:51:24;;;;;;;0.10;0.10;;;;;;;8.76;49.06;98979.75;5319420;26;34392;-81
2023/03/15 08:56:48;;;;;;;0.00;0.00;;;;;;;9.03;49.28;99000.41;5311917;26;32785;-81
2023/03/15 08:59:16;;;;;;;0.30;0.30;;;;;;;8.80;49.87;98994.47;5331759;26;33408;-81
2023/03/15 09:02:06;;;;;;;0.37;0.37;;;;;;;8.59;50.34;99004.28;5318213;26;34281;-82
2023/03/15 09:07:20;;;;;;;0.00;0.00;;;;;;;8.71;48.62;99013.34;5318531;26;35385;-82
2023/03/15 09:09:56;;;;;;;0.00;0.00;;;;;;;8.96;48.00;99016.47;5310926;26;34093;-82
2023/03/15 09:12:31;;;;;;;0.13;0.13;;;;;;;8.93;48.41;99032.44;5286359;26;33823;-81
2023/03/15 09:15:00;;;;;;;0.32;0.32;;;;;;;9.05;47.83;99038.03;5316822;26;34426;-82
2023/03/15 09:17:36;;;;;;;0.80;0.80;;;;;;;9.25;47.03;99029.97;5303794;26;34752;-82
2023/03/15 09:20:13;;;;;;;4.05;1.08;;;;;;;8.81;48.42;99033.03;5316398;26;34205;-81
2023/03/15 09:22:59;;;;;;;0.57;0.57;;;;;;;9.01;47.14;99041.72;5322986;26;34460;-81
2023/03/15 09:28:10;;;;;;;16.20;0.55;;;;;;;8.98;46.73;99046.22;5312762;26;34784;-81
2023/03/15 09:30:47;;;;;;;0.20;0.20;;;;;;;8.87;47.84;99047.66;5318401;26;33533;-82
2023/03/15 09:33:22;;;;;;;0.08;0.08;;;;;;;9.14;46.96;99056.00;5315748;26;33616;-82
2023/03/15 09:35:51;;;;;;;0.10;0.10;;;;;;;9.14;46.44;99064.75;5306748;26;33900;-82
2023/03/15 09:38:22;;;;;;;1.30;0.70;;;;;;;9.09;46.33;99071.19;5315728;26;34494;-82
2023/03/15 09:43:54;;;;;;;0.43;0.43;;;;;;;8.91;46.52;99075.56;5310242;26;33021;-81
2023/03/15 09:46:43;;;;;;;0.45;0.45;;;;;;;8.74;46.21;99088.69;5294963;26;33399;-82
2023/03/15 09:52:32;;;;;;;0.15;0.15;;;;;;;8.91;46.16;99073.78;5310499;26;33232;-82
2023/03/15 09:58:33;;;;;;;0.00;0.00;;;;;;;8.69;46.34;99078.37;5324100;26;34523;-82
2023/03/15 10:01:17;;;;;;;0.00;0.00;;;;;;;8.93;45.49;99074.56;5322778;26;33677;-81
2023/03/15 10:03:55;;;;;;;0.00;0.00;;;;;;;8.95;45.61;99077.13;5304802;26;32787;-81
2023/03/15 10:09:22;;;;;;;0.00;0.00;;;;;;;8.48;46.65;99082.00;5303558;26;33996;-81
2023/03/15 10:12:12;;;;;;;0.05;0.05;;;;;;;8.42;45.99;99089.25;5321171;26;33997;-81
2023/03/15 10:14:53;;;;;;;0.08;0.08;;;;;;;8.95;45.35;99087.66;5320967;26;33000;-82
2023/03/15 10:17:41;;;;;;;0.00;0.00;;;;;;;8.93;44.77;99082.47;5320740;26;33027;-81
2023/03/15 10:20:17;;;;;;;0.30;0.30;;;;;;;9.03;44.91;99079.37;5302852;26;33232;-81
2023/03/15 10:22:54;;;;;;;8.25;2.95;;;;;;;8.65;45.24;99089.97;5284711;26;34094;-81
2023/03/15 10:25:29;;;;;;;0.00;0.00;;;;;;;8.75;44.52;99091.25;5338275;26;33930;-82
2023/03/15 10:28:27;;;;;;;0.10;0.10;;;;;;;8.89;44.70;99099.34;5323033;26;36308;-81
2023/03/15 10:31:12;;;;;;;0.20;0.20;;;;;;;9.04;43.97;99094.25;5302032;26;32954;-82
2023/03/15 10:34:02;;;;;;;0.40;0.40;;;;;;;9.27;44.33;99101.03;5320852;26;32535;-83
2023/03/15 10:36:53;;;;;;;0.13;0.13;;;;;;;9.26;44.10;99107.22;5322283;26;35153;-81
2023/03/15 10:39:24;;;;;;;3.53;1.15;;;;;;;9.41;43.34;99109.97;5321366;26;33671;-81
2023/03/15 10:41:56;;;;;;;0.43;0.35;;;;;;;9.10;44.89;99112.38;5302692;26;33919;-81
2023/03/15 10:50:01;;;;;;;2.40;1.35;;;;;;;9.51;42.83;99109.50;5323447;26;34392;-81
2023/03/15 10:55:20;;;;;;;0.10;0.10;;;;;;;9.19;44.26;99122.47;5304941;26;34392;-82
2023/03/15 10:58:02;;;;;;;2.45;0.95;;;;;;;9.33;42.68;99129.72;5303253;26;33566;-81
2023/03/15 11:00:35;;;;;;;2.55;1.23;;;;;;;9.54;42.13;99131.25;5303163;26;34208;-81
2023/03/15 11:03:17;;;;;;;0.00;0.00;;;;;;;9.31;41.73;99135.06;5322783;26;34477;-81
2023/03/15 11:05:50;;;;;;;0.00;0.00;;;;;;;9.38;41.66;99138.22;5304194;26;33890;-82
2023/03/15 11:08:39;;;;;;;0.00;0.00;;;;;;;9.23;42.45;99145.09;5323291;26;34187;-82
2023/03/15 11:11:13;;;;;;;0.00;0.00;;;;;;;9.21;41.73;99139.94;5323171;26;33117;-81
2023/03/15 11:16:36;;;;;;;0.30;0.30;;;;;;;9.34;41.91;99152.47;5322811;26;34701;-81
2023/03/15 11:21:49;;;;;;;1.48;1.10;;;;;;;9.09;42.48;99152.81;5321365;26;33989;-82
2023/03/15 11:24:28;;;;;;;0.00;0.00;;;;;;;9.36;40.38;99162.03;5341191;26;34006;-82
2023/03/15 11:27:12;;;;;;;0.00;0.00;;;;;;;9.22;40.57;99153.94;5303835;26;33758;-82
2023/03/15 11:29:51;;;;;;;0.28;0.28;;;;;;;9.28;40.83;99153.63;5299805;27;32953;-82
2023/03/15 11:32:31;;;;;;;0.00;0.00;;;;;;;9.36;40.85;99148.84;5283642;27;33995;-81
2023/03/15 11:35:11;;;;;;;0.13;0.13;;;;;;;9.37;40.88;99158.47;5300482;27;34903;-83
2023/03/15 11:43:51;;;;;;;0.13;0.13;;;;;;;9.60;41.11;99159.12;5301257;27;34421;-82
2023/03/15 11:46:32;;;;;;;0.00;0.00;;;;;;;9.78;40.11;99147.66;5283007;27;33325;-82
2023/03/15 11:49:33;;;;;;;0.52;0.52;;;;;;;9.46;40.00;99147.47;5299899;27;32519;-81
2023/03/15 11:52:04;;;;;;;0.00;0.00;;;;;;;9.43;40.60;99163.41;5280971;27;32871;-81
2023/03/15 11:54:37;;;;;;;0.03;0.03;;;;;;;9.38;40.49;99167.22;5263057;27;33031;-81
2023/03/15 12:00:36;;;;;;;0.00;0.00;;;;;;;9.56;39.62;99162.81;5281207;27;32686;-81
2023/03/15 12:03:32;;;;;;;0.70;0.55;;;;;;;9.45;39.59;99173.91;5316617;27;35076;-82
2023/03/15 12:06:08;;;;;;;0.20;0.20;;;;;;;9.43;39.72;99168.69;5300415;27;33502;-81
2023/03/15 12:08:45;;;;;;;;;;;;;;;9.42;40.00;99180.16;5316916;27;33662;-82
2023/03/15 12:11:22;;;;;;;0.28;0.28;;;;;;;9.47;39.88;99180.78;5317558;27;34498;-81
2023/03/15 12:13:58;;;;;;;0.00;0.00;;;;;;;9.49;39.34;99191.25;5299713;27;32994;-82
2023/03/15 12:22:04;;;;;;;0.37;0.37;;;;;;;9.97;39.39;99180.06;5300918;27;33381;-82
2023/03/15 12:24:36;;;;;;;0.52;0.52;;;;;;;10.12;38.33;99177.56;5281173;27;32220;-82
2023/03/15 12:27:18;;;;;;;15.80;1.50;;;;;;;10.06;37.99;99173.44;5299393;27;34152;-82
2023/03/15 12:29:49;;;;;;;0.00;0.00;;;;;;;10.22;37.74;99169.09;5299207;27;33735;-83
2023/03/15 12:32:21;;;;;;;0.00;0.00;;;;;;;10.22;38.02;99165.59;5299894;27;33669;-82
2023/03/15 12:34:56;;;;;;;0.35;0.35;;;;;;;10.35;37.51;99166.69;5299626;27;32773;-82
2023/03/15 12:40:38;;;;;;;0.00;0.00;;;;;;;10.11;36.97;99170.56;5301546;27;33455;-82
2023/03/15 12:43:07;;;;;;;1.48;1.23;;;;;;;10.20;37.38;99193.81;5298267;27;32574;-82
2023/03/15 12:45:44;;;;;;;3.67;1.55;;;;;;;10.57;36.82;99184.00;5297651;27;33856;-82
2023/03/15 12:48:20;;;;;;;0.00;0.00;;;;;;;10.92;36.19;99185.63;5300051;27;33807;-82
2023/03/15 12:51:04;;;;;;;0.08;0.08;;;;;;;11.11;35.88;99185.44;5280561;27;33427;-82
2023/03/15 12:53:37;;;;;;;0.00;0.00;;;;;;;11.14;35.63;99189.69;5307038;27;256718;-82
2023/03/15 12:56:26;;;;;;;0.00;0.00;;;;;;;11.01;35.70;99200.09;5317775;27;33049;-82
2023/03/15 12:59:40;;;;;;;0.20;0.20;;;;;;;10.68;34.61;99192.19;5302731;27;33583;-82
2023/03/15 13:02:24;;;;;;;1.67;1.58;;;;;;;10.69;35.19;99196.56;5299427;27;34484;-82
2023/03/15 13:05:29;;;;;;;0.30;0.20;;;;;;;10.97;33.63;99190.66;5282928;27;33659;-82
2023/03/15 13:08:21;;;;;;;0.00;0.00;;;;;;;10.76;33.49;99188.22;5298131;27;33196;-82
2023/03/15 13:10:55;;;;;;;0.00;0.00;;;;;;;10.58;34.17;99191.84;5316900;27;33109;-82
2023/03/15 13:13:33;;;;;;;0.10;0.10;;;;;;;10.72;33.34;99205.16;5300267;27;32922;-82